createdAt,value
2023-02-12T00:01:16.230Z,98303.75
2023-02-12T00:03:46.529Z,98299.97
2023-02-12T00:06:19.098Z,98251.38
2023-02-12T00:08:52.014Z,98218.66
2023-02-12T00:11:24.890Z,98294.94
2023-02-12T00:14:03.559Z,98301.63
2023-02-12T00:16:31.416Z,98304.41
2023-02-12T00:18:59.948Z,98271.19
2023-02-12T00:21:31.875Z,98307.66
2023-02-12T00:23:59.752Z,98310.28
2023-02-12T00:26:27.667Z,98237.09
2023-02-12T00:28:55.926Z,98329.72
2023-02-12T00:31:28.732Z,98286.88
2023-02-12T00:33:56.811Z,98313.75
2023-02-12T00:36:30.003Z,98312.94
2023-02-12T00:39:01.352Z,98315.38
2023-02-12T00:41:29.447Z,98314.66
2023-02-12T00:44:02.455Z,98316.84
2023-02-12T00:46:30.309Z,98320.72
2023-02-12T00:49:00.311Z,98321.47
2023-02-12T00:51:35.272Z,98316.13
2023-02-12T00:54:07.419Z,98288.47
2023-02-12T00:56:35.216Z,98336.63
2023-02-12T00:59:02.966Z,98321.94
2023-02-12T01:01:36.608Z,98329.78
2023-02-12T01:04:04.538Z,98328.13
2023-02-12T01:06:34.083Z,98323.78
2023-02-12T01:09:02.001Z,98329.91
2023-02-12T01:11:31.176Z,98322.81
2023-02-12T01:14:00.101Z,98300.81
2023-02-12T01:16:28.593Z,98322.13
2023-02-12T01:18:56.956Z,98296.56
2023-02-12T01:21:32.747Z,98329.81
2023-02-12T01:24:08.466Z,98327.97
2023-02-12T01:26:38.102Z,98321.38
2023-02-12T01:29:07.474Z,98329.50
2023-02-12T01:31:38.383Z,98326.69
2023-02-12T01:34:07.670Z,98328.31
2023-02-12T01:36:37.531Z,98325.84
2023-02-12T01:39:06.578Z,98328.28
2023-02-12T01:41:37.364Z,98338.16
2023-02-12T01:44:17.911Z,98161.28
2023-02-12T01:46:46.778Z,98322.66
2023-02-12T01:49:18.601Z,98316.56
2023-02-12T01:51:47.577Z,98255.78
2023-02-12T01:54:22.269Z,98321.16
2023-02-12T01:56:53.282Z,98312.13
2023-02-12T01:59:28.158Z,98320.03
2023-02-12T02:01:56.442Z,98324.41
2023-02-12T02:04:27.170Z,98314.66
2023-02-12T02:06:58.493Z,98315.25
2023-02-12T02:09:27.257Z,98267.66
2023-02-12T02:12:15.794Z,98313.16
2023-02-12T02:14:45.381Z,98316.78
2023-02-12T02:17:32.000Z,98308.66
2023-02-12T02:20:46.756Z,98279.44
2023-02-12T02:23:32.289Z,98310.28
2023-02-12T02:26:33.947Z,98303.97
2023-02-12T02:29:22.201Z,98298.91
2023-02-12T02:31:54.929Z,98307.50
2023-02-12T02:34:27.500Z,98300.94
2023-02-12T02:37:02.912Z,98304.56
2023-02-12T02:39:38.783Z,98302.63
2023-02-12T02:42:11.356Z,98301.00
2023-02-12T02:44:47.795Z,98304.47
2023-02-12T02:47:22.936Z,98232.69
2023-02-12T02:50:01.963Z,98296.16
2023-02-12T02:52:33.635Z,98290.44
2023-02-12T02:55:05.132Z,98302.59
2023-02-12T02:57:42.305Z,98284.56
2023-02-12T03:00:15.432Z,98303.22
2023-02-12T03:02:47.316Z,98303.81
2023-02-12T03:05:21.429Z,98235.66
2023-02-12T03:07:52.414Z,98299.56
2023-02-12T03:10:22.925Z,98298.13
2023-02-12T03:12:54.368Z,98245.00
2023-02-12T03:15:27.833Z,98298.75
2023-02-12T03:18:00.657Z,98240.31
2023-02-12T03:20:30.778Z,98347.06
2023-02-12T03:23:05.069Z,98303.81
2023-02-12T03:25:37.063Z,98302.84
2023-02-12T03:28:08.296Z,98305.88
2023-02-12T03:30:45.284Z,98313.94
2023-02-12T03:33:32.100Z,98315.19
2023-02-12T03:36:05.371Z,98304.81
2023-02-12T03:38:37.969Z,98287.34
2023-02-12T03:41:12.960Z,98269.53
2023-02-12T03:43:50.303Z,98254.50
2023-02-12T03:46:22.347Z,98304.66
2023-02-12T03:49:00.558Z,98283.13
2023-02-12T03:51:34.611Z,98306.28
2023-02-12T03:54:05.072Z,98299.34
2023-02-12T03:56:43.568Z,98300.94
2023-02-12T03:59:25.376Z,98237.25
2023-02-12T04:01:54.831Z,98310.75
2023-02-12T04:04:27.843Z,98311.16
2023-02-12T04:06:56.205Z,98311.31
2023-02-12T04:09:26.112Z,98311.03
2023-02-12T04:12:04.024Z,98288.72
2023-02-12T04:14:39.837Z,98311.00
2023-02-12T04:17:13.138Z,98337.06
2023-02-12T04:19:51.297Z,98295.59
2023-02-12T04:22:31.198Z,98309.25
2023-02-12T04:25:10.522Z,98306.56
2023-02-12T04:27:46.346Z,98312.28
2023-02-12T04:30:18.457Z,98304.53
2023-02-12T04:32:49.785Z,98316.38
2023-02-12T04:35:23.262Z,98315.84
2023-02-12T04:37:54.041Z,98285.25
2023-02-12T04:40:28.125Z,98322.81
2023-02-12T04:43:02.264Z,98321.81
2023-02-12T04:45:34.609Z,98333.84
2023-02-12T04:48:09.956Z,98327.38
2023-02-12T04:50:47.519Z,98323.69
2023-02-12T04:53:18.512Z,98259.97
2023-02-12T04:55:47.426Z,98331.13
2023-02-12T04:58:18.294Z,98310.59
2023-02-12T05:00:46.358Z,98336.63
2023-02-12T05:03:14.189Z,98208.00
2023-02-12T05:05:43.394Z,98330.59
2023-02-12T05:08:15.940Z,98314.28
2023-02-12T05:10:43.760Z,98323.16
2023-02-12T05:13:14.339Z,98220.31
2023-02-12T05:15:42.320Z,98320.47
2023-02-12T05:18:11.428Z,98307.31
2023-02-12T05:20:39.224Z,98321.94
2023-02-12T05:23:08.434Z,98332.50
2023-02-12T05:25:39.092Z,98317.88
2023-02-12T05:28:07.267Z,98325.09
2023-02-12T05:30:37.987Z,98309.59
2023-02-12T05:33:05.874Z,98325.28
2023-02-12T05:35:35.815Z,98325.78
2023-02-12T05:38:06.704Z,98331.63
2023-02-12T05:40:40.292Z,98339.34
2023-02-12T05:43:08.140Z,98319.78
2023-02-12T05:45:38.377Z,98327.31
2023-02-12T05:48:06.301Z,98335.56
2023-02-12T05:50:34.233Z,98330.75
2023-02-12T05:53:09.983Z,98333.19
2023-02-12T05:55:42.122Z,98331.84
2023-02-12T05:58:10.359Z,98348.75
2023-02-12T06:00:40.580Z,98334.72
2023-02-12T06:03:08.354Z,98335.75
2023-02-12T06:05:38.740Z,98327.44
2023-02-12T06:08:06.630Z,98330.06
2023-02-12T06:10:34.402Z,98326.84
2023-02-12T06:13:03.566Z,98326.34
2023-02-12T06:15:31.638Z,98311.09
2023-02-12T06:18:02.248Z,98329.34
2023-02-12T06:20:32.245Z,98312.09
2023-02-12T06:23:00.032Z,98332.97
2023-02-12T06:25:28.094Z,98331.53
2023-02-12T06:27:58.543Z,98332.13
2023-02-12T06:30:38.814Z,98327.81
2023-02-12T06:33:06.552Z,98335.31
2023-02-12T06:35:38.607Z,98315.44
2023-02-12T06:38:16.637Z,98345.50
2023-02-12T06:40:44.515Z,98328.03
2023-02-12T06:43:12.382Z,98318.25
2023-02-12T06:45:41.593Z,98353.38
2023-02-12T06:48:09.408Z,98351.97
2023-02-12T06:50:39.904Z,98359.91
2023-02-12T06:53:10.766Z,98361.31
2023-02-12T06:55:40.932Z,98360.47
2023-02-12T06:58:17.818Z,98356.97
2023-02-12T07:00:47.372Z,98064.50
2023-02-12T07:03:15.263Z,98363.78
2023-02-12T07:05:44.957Z,98364.59
2023-02-12T07:08:15.309Z,98371.13
2023-02-12T07:10:49.479Z,98376.44
2023-02-12T07:13:17.400Z,98364.06
2023-02-12T07:15:46.650Z,98374.53
2023-02-12T07:18:14.548Z,98370.66
2023-02-12T07:20:47.609Z,98380.94
2023-02-12T07:23:16.427Z,98322.84
2023-02-12T07:25:46.836Z,98376.19
2023-02-12T07:28:20.068Z,98371.13
2023-02-12T07:30:50.443Z,98371.78
2023-02-12T07:33:20.763Z,98340.38
2023-02-12T07:35:50.717Z,98359.47
2023-02-12T07:38:21.081Z,98375.72
2023-02-12T07:40:51.067Z,98372.88
2023-02-12T07:43:30.933Z,98378.16
2023-02-12T07:46:10.592Z,98379.56
2023-02-12T07:48:39.663Z,98359.84
2023-02-12T07:51:09.163Z,98366.38
2023-02-12T07:53:37.832Z,98377.75
2023-02-12T07:56:07.267Z,98367.59
2023-02-12T07:58:37.554Z,98365.56
2023-02-12T08:01:18.670Z,98377.56
2023-02-12T08:03:50.882Z,98375.28
2023-02-12T08:06:20.381Z,98368.75
2023-02-12T08:08:48.666Z,98372.84
2023-02-12T08:11:16.676Z,98364.69
2023-02-12T08:13:47.688Z,98369.72
2023-02-12T08:16:18.479Z,98369.97
2023-02-12T08:18:49.731Z,98360.63
2023-02-12T08:21:19.609Z,98358.88
2023-02-12T08:23:49.941Z,98355.84
2023-02-12T08:26:21.845Z,98355.28
2023-02-12T08:28:52.110Z,98355.25
2023-02-12T08:31:23.454Z,98354.63
2023-02-12T08:33:53.002Z,98355.97
2023-02-12T08:36:23.221Z,98291.00
2023-02-12T08:38:54.074Z,98356.56
2023-02-12T08:41:23.396Z,98364.34
2023-02-12T08:44:23.003Z,98365.84
2023-02-12T08:46:46.774Z,98345.09
2023-02-12T08:49:17.629Z,98371.84
2023-02-12T08:51:50.082Z,98350.00
2023-02-12T08:54:21.238Z,98374.41
2023-02-12T08:56:49.089Z,98381.34
2023-02-12T08:59:17.701Z,98374.44
2023-02-12T09:01:48.231Z,98371.16
2023-02-12T09:04:24.177Z,98374.47
2023-02-12T09:06:53.239Z,98376.75
2023-02-12T09:09:24.297Z,98377.88
2023-02-12T09:11:52.839Z,98357.38
2023-02-12T09:14:24.309Z,98381.50
2023-02-12T09:16:54.670Z,98389.50
2023-02-12T09:19:22.764Z,98373.03
2023-02-12T09:21:55.516Z,98379.25
2023-02-12T09:24:24.200Z,98348.47
2023-02-12T09:27:16.963Z,98384.66
2023-02-12T09:29:47.971Z,98390.97
2023-02-12T09:32:17.373Z,98380.38
2023-02-12T09:34:47.878Z,98406.56
2023-02-12T09:37:16.706Z,98340.50
2023-02-12T09:39:45.018Z,98400.47
2023-02-12T09:42:36.535Z,98402.75
2023-02-12T09:45:08.747Z,98403.38
2023-02-12T09:47:47.145Z,98389.38
2023-02-12T09:50:27.679Z,98396.47
2023-02-12T09:52:57.923Z,98394.81
2023-02-12T09:55:28.796Z,98392.78
2023-02-12T09:57:56.808Z,98395.34
2023-02-12T10:00:31.785Z,98396.63
2023-02-12T10:03:08.796Z,98385.25
2023-02-12T10:05:42.608Z,98396.63
2023-02-12T10:08:33.418Z,98400.50
2023-02-12T10:11:18.963Z,98396.22
2023-02-12T10:13:54.673Z,98378.31
2023-02-12T10:16:34.683Z,98392.34
2023-02-12T10:19:21.865Z,98390.47
2023-02-12T10:22:00.446Z,98394.53
2023-02-12T10:24:43.995Z,98302.53
2023-02-12T10:27:18.124Z,98338.50
2023-02-12T10:29:47.973Z,98393.78
2023-02-12T10:32:26.189Z,98392.59
2023-02-12T10:34:57.450Z,98387.09
2023-02-12T10:37:30.306Z,98393.19
2023-02-12T10:40:05.642Z,98388.09
2023-02-12T10:42:42.433Z,98380.22
2023-02-12T10:45:21.445Z,98379.38
2023-02-12T10:47:55.055Z,98377.56
2023-02-12T10:50:45.004Z,98387.91
2023-02-12T10:53:22.499Z,98383.22
2023-02-12T10:55:50.510Z,98383.03
2023-02-12T10:58:21.804Z,98366.75
2023-02-12T11:01:00.342Z,98336.91
2023-02-12T11:03:30.668Z,98378.75
2023-02-12T11:06:14.414Z,98430.16
2023-02-12T11:08:42.949Z,98376.75
2023-02-12T11:11:18.475Z,98374.09
2023-02-12T11:13:49.010Z,98357.06
2023-02-12T11:16:28.140Z,98361.91
2023-02-12T11:19:00.030Z,98373.69
2023-02-12T11:21:32.555Z,98364.97
2023-02-12T11:24:22.495Z,98371.47
2023-02-12T11:26:50.921Z,98366.97
2023-02-12T11:29:21.086Z,98332.47
2023-02-12T11:32:02.547Z,98359.91
2023-02-12T11:34:31.950Z,98361.50
2023-02-12T11:37:14.240Z,98352.56
2023-02-12T11:39:42.212Z,98351.34
2023-02-12T11:42:17.555Z,98360.28
2023-02-12T11:44:56.517Z,98357.03
2023-02-12T11:47:26.904Z,98356.19
2023-02-12T11:50:00.483Z,98352.13
2023-02-12T11:52:32.754Z,98364.34
2023-02-12T11:55:03.261Z,98359.88
2023-02-12T11:57:49.352Z,98328.19
2023-02-12T12:00:19.122Z,98303.81
2023-02-12T12:02:50.809Z,98328.19
2023-02-12T12:05:21.202Z,98352.34
2023-02-12T12:07:54.671Z,98216.78
2023-02-12T12:10:31.370Z,98258.38
2023-02-12T12:13:08.519Z,98350.94
2023-02-12T12:15:57.876Z,98352.13
2023-02-12T12:18:48.036Z,98350.75
2023-02-12T12:21:21.990Z,98336.31
2023-02-12T12:23:54.325Z,98344.84
2023-02-12T12:26:25.344Z,98351.16
2023-02-12T12:28:58.718Z,98346.28
2023-02-12T12:31:30.376Z,98309.94
2023-02-12T12:34:03.494Z,98338.94
2023-02-12T12:36:51.171Z,98292.88
2023-02-12T12:39:30.857Z,98343.63
2023-02-12T12:42:30.957Z,98281.09
2023-02-12T12:45:08.747Z,98295.72
2023-02-12T12:47:45.311Z,98332.03
2023-02-12T12:50:33.037Z,98329.44
2023-02-12T12:53:10.768Z,98321.19
2023-02-12T12:56:17.084Z,98319.63
2023-02-12T12:58:55.581Z,98309.25
2023-02-12T13:01:42.173Z,98306.41
2023-02-12T13:04:31.452Z,98296.09
2023-02-12T13:07:13.612Z,98240.38
2023-02-12T13:10:02.540Z,98295.91
2023-02-12T13:13:01.983Z,98297.88
2023-02-12T13:15:35.514Z,98153.81
2023-02-12T13:18:14.795Z,98293.78
2023-02-12T13:20:48.754Z,98287.44
2023-02-12T13:23:24.547Z,98275.25
2023-02-12T13:26:06.481Z,98287.31
2023-02-12T13:28:40.971Z,98265.91
2023-02-12T13:31:32.098Z,98278.78
2023-02-12T13:34:05.324Z,98254.94
2023-02-12T13:36:38.140Z,98258.47
2023-02-12T13:39:09.028Z,98264.91
2023-02-12T13:41:37.391Z,98209.06
2023-02-12T13:44:14.917Z,98267.72
2023-02-12T13:46:55.704Z,98253.06
2023-02-12T13:49:30.597Z,98278.25
2023-02-12T13:52:04.821Z,98247.69
2023-02-12T13:54:48.683Z,98248.44
2023-02-12T13:57:20.578Z,98249.75
2023-02-12T13:59:55.831Z,98214.38
2023-02-12T14:02:43.996Z,98210.81
2023-02-12T14:05:24.495Z,98229.69
2023-02-12T14:07:53.847Z,98237.41
2023-02-12T14:10:27.878Z,98244.09
2023-02-12T14:12:58.884Z,98226.94
2023-02-12T14:15:34.812Z,98249.59
2023-02-12T14:18:22.163Z,98221.50
2023-02-12T14:21:09.708Z,98231.44
2023-02-12T14:23:37.659Z,98231.50
2023-02-12T14:26:09.120Z,98215.59
2023-02-12T14:28:49.156Z,98223.16
2023-02-12T14:31:39.633Z,98216.84
2023-02-12T14:34:48.222Z,98223.31
2023-02-12T14:37:38.187Z,98175.63
2023-02-12T14:40:31.761Z,98216.56
2023-02-12T14:43:15.880Z,98219.88
2023-02-12T14:45:43.741Z,98216.44
2023-02-12T14:48:45.124Z,98219.41
2023-02-12T14:51:17.640Z,98223.84
2023-02-12T14:53:47.870Z,98222.00
2023-02-12T14:56:22.766Z,98215.16
2023-02-12T14:58:51.334Z,98222.28
2023-02-12T15:01:35.168Z,98221.22
2023-02-12T15:04:13.326Z,98221.94
2023-02-12T15:06:44.911Z,98215.31
2023-02-12T15:09:23.263Z,98219.28
2023-02-12T15:11:54.270Z,98207.06
2023-02-12T15:14:25.454Z,98207.94
2023-02-12T15:16:59.875Z,98220.53
2023-02-12T15:19:42.136Z,98221.94
2023-02-12T15:22:24.655Z,98222.91
2023-02-12T15:24:52.823Z,98205.09
2023-02-12T15:27:21.808Z,98212.66
2023-02-12T15:29:52.514Z,98212.38
2023-02-12T15:32:27.139Z,98216.13
2023-02-12T15:34:59.121Z,98217.31
2023-02-12T15:40:18.101Z,98167.91
2023-02-12T15:42:54.369Z,98189.34
2023-02-12T15:45:26.918Z,98210.28
2023-02-12T15:48:03.756Z,98209.16
2023-02-12T15:50:34.689Z,98163.91
2023-02-12T15:53:04.600Z,98179.44
2023-02-12T15:55:40.104Z,98184.72
2023-02-12T15:58:25.992Z,98197.44
2023-02-12T16:00:57.511Z,98212.16
2023-02-12T16:03:27.302Z,98196.28
2023-02-12T16:06:01.802Z,98207.28
2023-02-12T16:08:30.674Z,98196.84
2023-02-12T16:11:13.719Z,98195.88
2023-02-12T16:13:44.985Z,98204.13
2023-02-12T16:16:26.068Z,98200.19
2023-02-12T16:19:20.459Z,98200.75
2023-02-12T16:21:52.232Z,98174.91
2023-02-12T16:24:27.948Z,98152.00
2023-02-12T16:26:56.366Z,98207.38
2023-02-12T16:29:27.146Z,98206.88
2023-02-12T16:31:57.994Z,98218.91
2023-02-12T16:34:37.514Z,98221.44
2023-02-12T16:37:43.588Z,98218.13
2023-02-12T16:40:26.197Z,98214.72
2023-02-12T16:43:03.282Z,98208.34
2023-02-12T16:45:38.626Z,98220.16
2023-02-12T16:48:25.555Z,98224.31
2023-02-12T16:50:58.996Z,98226.88
2023-02-12T16:53:43.129Z,98230.38
2023-02-12T16:59:03.991Z,98154.78
2023-02-12T17:01:34.181Z,98236.31
2023-02-12T17:04:08.705Z,98238.00
2023-02-12T17:06:36.619Z,98237.59
2023-02-12T17:09:07.988Z,98229.47
2023-02-12T17:11:35.861Z,98244.97
2023-02-12T17:14:06.384Z,98240.72
2023-02-12T17:16:36.103Z,98213.75
2023-02-12T17:19:06.945Z,98251.31
2023-02-12T17:21:38.317Z,98246.84
2023-02-12T17:24:10.178Z,98245.88
2023-02-12T17:26:40.674Z,98256.09
2023-02-12T17:29:08.636Z,98251.16
2023-02-12T17:31:37.604Z,98291.06
2023-02-12T17:34:07.700Z,98250.38
2023-02-12T17:36:41.549Z,98260.97
2023-02-12T17:39:15.555Z,98260.94
2023-02-12T17:41:45.153Z,98262.50
2023-02-12T17:44:18.991Z,98241.69
2023-02-12T17:46:46.870Z,98261.84
2023-02-12T17:49:19.731Z,98254.56
2023-02-12T17:51:48.330Z,98260.69
2023-02-12T17:54:21.065Z,98255.72
2023-02-12T17:56:50.493Z,98251.13
2023-02-12T17:59:18.303Z,98248.03
2023-02-12T18:01:55.114Z,98267.91
2023-02-12T18:04:22.978Z,98264.25
2023-02-12T18:06:52.315Z,98273.19
2023-02-12T18:09:22.636Z,98252.97
2023-02-12T18:11:53.427Z,98240.00
2023-02-12T18:14:23.747Z,98271.66
2023-02-12T18:16:58.243Z,98269.91
2023-02-12T18:19:26.708Z,98228.50
2023-02-12T18:21:56.739Z,98273.06
2023-02-12T18:24:31.740Z,98276.44
2023-02-12T18:27:02.220Z,98268.56
2023-02-12T18:29:33.143Z,98264.59
2023-02-12T18:32:03.584Z,98258.03
2023-02-12T18:34:33.337Z,98259.28
2023-02-12T18:37:01.445Z,98241.72
2023-02-12T18:39:33.850Z,98263.94
2023-02-12T18:42:02.416Z,98255.69
2023-02-12T18:44:37.261Z,98260.19
2023-02-12T18:47:12.862Z,98255.88
2023-02-12T18:49:40.677Z,98255.88
2023-02-12T18:52:08.696Z,98261.38
2023-02-12T18:54:38.889Z,98236.69
2023-02-12T18:57:06.664Z,98262.63
2023-02-12T18:59:38.394Z,98270.34
2023-02-12T19:02:15.704Z,98263.56
2023-02-12T19:04:46.450Z,98243.56
2023-02-12T19:07:16.988Z,98268.28
2023-02-12T19:09:50.051Z,98255.03
2023-02-12T19:12:20.570Z,98265.59
2023-02-12T19:14:48.418Z,98276.19
2023-02-12T19:17:16.245Z,98269.28
2023-02-12T19:19:43.999Z,98270.50
2023-02-12T19:22:14.493Z,98198.09
2023-02-12T19:24:46.921Z,98259.16
2023-02-12T19:27:16.491Z,98260.38
2023-02-12T19:29:47.307Z,98269.25
2023-02-12T19:32:17.370Z,98274.94
2023-02-12T19:34:47.397Z,98275.13
2023-02-12T19:37:18.023Z,98270.47
2023-02-12T19:39:46.209Z,98274.94
2023-02-12T19:42:17.599Z,98273.66
2023-02-12T19:44:47.518Z,98272.06
2023-02-12T19:47:18.227Z,98285.09
2023-02-12T19:49:50.599Z,98287.16
2023-02-12T19:52:18.493Z,98283.31
2023-02-12T19:54:47.269Z,98277.41
2023-02-12T19:57:21.222Z,98277.41
2023-02-12T19:59:53.390Z,98280.06
2023-02-12T20:02:21.266Z,98277.22
2023-02-12T20:04:50.767Z,98283.91
2023-02-12T20:07:18.590Z,98016.63
2023-02-12T20:09:46.441Z,98285.34
2023-02-12T20:12:14.311Z,98238.91
2023-02-12T20:14:44.726Z,98274.41
2023-02-12T20:17:18.662Z,98281.53
2023-02-12T20:19:51.225Z,98280.09
2023-02-12T20:22:19.096Z,98286.00
2023-02-12T20:24:47.049Z,98285.19
2023-02-12T20:27:14.909Z,98270.75
2023-02-12T20:29:44.808Z,98299.75
2023-02-12T20:32:14.813Z,98298.72
2023-02-12T20:34:51.497Z,98275.16
2023-02-12T20:37:21.971Z,98290.38
2023-02-12T20:39:49.746Z,98288.75
2023-02-12T20:42:23.368Z,98270.63
2023-02-12T20:45:01.855Z,98294.38
2023-02-12T20:47:32.089Z,98297.66
2023-02-12T20:50:02.695Z,98303.91
2023-02-12T20:52:32.082Z,98296.63
2023-02-12T20:55:01.157Z,98294.34
2023-02-12T20:57:31.430Z,98300.41
2023-02-12T20:59:59.266Z,98300.09
2023-02-12T21:02:27.170Z,98009.91
2023-02-12T21:04:56.201Z,98301.31
2023-02-12T21:07:25.447Z,98281.66
2023-02-12T21:09:54.364Z,98302.13
2023-02-12T21:12:23.310Z,98299.72
2023-02-12T21:14:51.081Z,98297.69
2023-02-12T21:17:24.705Z,98298.53
2023-02-12T21:19:54.552Z,98295.69
2023-02-12T21:22:22.432Z,98265.63
2023-02-12T21:25:01.760Z,98282.06
2023-02-12T21:27:32.445Z,98292.78
2023-02-12T21:30:00.296Z,98291.38
2023-02-12T21:32:28.454Z,98291.59
2023-02-12T21:34:56.453Z,98284.69
2023-02-12T21:37:24.289Z,98266.13
2023-02-12T21:39:53.516Z,98272.34
2023-02-12T21:42:21.389Z,98289.78
2023-02-12T21:44:49.268Z,98288.91
2023-02-12T21:47:19.157Z,98255.38
2023-02-12T21:49:46.952Z,98290.13
2023-02-12T21:52:14.818Z,98282.47
2023-02-12T21:54:42.669Z,98273.97
2023-02-12T21:57:19.661Z,98285.31
2023-02-12T21:59:50.209Z,98281.50
2023-02-12T22:02:24.192Z,98284.16
2023-02-12T22:04:58.210Z,98279.69
2023-02-12T22:07:26.697Z,98275.25
2023-02-12T22:10:00.982Z,98263.78
2023-02-12T22:12:32.488Z,98286.97
2023-02-12T22:15:00.372Z,98284.47
2023-02-12T22:17:33.371Z,98284.34
2023-02-12T22:20:01.527Z,98247.47
2023-02-12T22:22:31.420Z,98281.69
2023-02-12T22:24:59.329Z,98283.78
2023-02-12T22:27:27.348Z,98286.97
2023-02-12T22:29:56.596Z,98278.28
2023-02-12T22:32:30.752Z,98256.13
2023-02-12T22:35:00.769Z,98284.56
2023-02-12T22:37:35.019Z,98280.50
2023-02-12T22:40:02.811Z,98227.66
2023-02-12T22:42:37.458Z,98287.19
2023-02-12T22:45:07.930Z,98282.38
2023-02-12T22:47:38.918Z,98288.13
2023-02-12T22:50:10.878Z,98278.06
2023-02-12T22:52:38.970Z,98204.91
2023-02-12T22:55:12.299Z,98291.44
2023-02-12T22:57:43.998Z,98286.06
2023-02-12T23:00:28.558Z,98292.91
2023-02-12T23:03:00.042Z,98293.22
2023-02-12T23:05:30.381Z,98283.63
2023-02-12T23:08:19.051Z,98296.00
2023-02-12T23:10:47.404Z,98303.91
2023-02-12T23:13:29.052Z,98303.28
2023-02-12T23:15:59.786Z,98302.25
2023-02-12T23:18:30.909Z,98293.06
2023-02-12T23:21:01.989Z,98290.00
2023-02-12T23:23:29.883Z,98294.78
2023-02-12T23:25:57.774Z,98284.94
2023-02-12T23:28:25.583Z,98293.53
2023-02-12T23:30:53.687Z,98279.00
2023-02-12T23:33:22.976Z,98289.28
2023-02-12T23:35:50.918Z,98284.38
2023-02-12T23:38:23.449Z,98290.75
2023-02-12T23:40:52.165Z,98287.66
2023-02-12T23:43:23.092Z,98259.09
2023-02-12T23:45:53.698Z,98278.44
2023-02-12T23:48:23.480Z,98279.19
2023-02-12T23:50:56.950Z,98284.50
2023-02-12T23:53:27.781Z,97997.84
2023-02-12T23:55:58.276Z,98293.69
2023-02-12T23:58:26.490Z,98287.06
